sensor_id;sensor_type;location;lat;lon;timestamp;P1;durP1;ratioP1;P2;durP2;ratioP2
41683;SDS011;27369;52.030;4.586;2022-12-15T00:01:59;14.13;;;8.95;;
41683;SDS011;27369;52.030;4.586;2022-12-15T00:04:43;16.58;;;8.55;;
41683;SDS011;27369;52.030;4.586;2022-12-15T00:07:28;14.32;;;8.30;;
41683;SDS011;27369;52.030;4.586;2022-12-15T00:10:12;13.85;;;8.10;;
41683;SDS011;27369;52.030;4.586;2022-12-15T00:12:56;13.25;;;6.75;;
41683;SDS011;27369;52.030;4.586;2022-12-15T00:15:39;15.07;;;7.70;;
41683;SDS011;27369;52.030;4.586;2022-12-15T00:18:23;14.95;;;8.68;;
41683;SDS011;27369;52.030;4.586;2022-12-15T00:21:08;16.48;;;8.60;;
41683;SDS011;27369;52.030;4.586;2022-12-15T00:23:52;12.93;;;7.63;;
41683;SDS011;27369;52.030;4.586;2022-12-15T00:26:36;11.07;;;7.38;;
41683;SDS011;27369;52.030;4.586;2022-12-15T00:29:20;17.27;;;7.85;;
41683;SDS011;27369;52.030;4.586;2022-12-15T00:32:03;15.25;;;8.70;;
41683;SDS011;27369;52.030;4.586;2022-12-15T00:34:47;14.27;;;7.93;;
41683;SDS011;27369;52.030;4.586;2022-12-15T00:37:31;13.52;;;7.75;;
41683;SDS011;27369;52.030;4.586;2022-12-15T00:40:15;13.57;;;7.25;;
41683;SDS011;27369;52.030;4.586;2022-12-15T00:42:41;13.77;;;7.60;;
41683;SDS011;27369;52.030;4.586;2022-12-15T00:45:06;13.13;;;7.88;;
41683;SDS011;27369;52.030;4.586;2022-12-15T00:47:32;14.20;;;8.20;;
41683;SDS011;27369;52.030;4.586;2022-12-15T00:49:58;15.00;;;8.30;;
41683;SDS011;27369;52.030;4.586;2022-12-15T00:52:42;12.93;;;7.50;;
41683;SDS011;27369;52.030;4.586;2022-12-15T00:55:26;15.35;;;9.02;;
41683;SDS011;27369;52.030;4.586;2022-12-15T00:58:11;14.52;;;8.48;;
41683;SDS011;27369;52.030;4.586;2022-12-15T01:00:54;13.93;;;8.27;;
41683;SDS011;27369;52.030;4.586;2022-12-15T01:03:38;11.93;;;7.32;;
41683;SDS011;27369;52.030;4.586;2022-12-15T01:06:22;15.48;;;8.25;;
41683;SDS011;27369;52.030;4.586;2022-12-15T01:09:08;13.55;;;7.60;;
41683;SDS011;27369;52.030;4.586;2022-12-15T01:11:53;12.95;;;7.78;;
41683;SDS011;27369;52.030;4.586;2022-12-15T01:14:37;14.40;;;8.60;;
41683;SDS011;27369;52.030;4.586;2022-12-15T01:17:21;14.68;;;7.93;;
41683;SDS011;27369;52.030;4.586;2022-12-15T01:20:06;15.05;;;8.68;;
41683;SDS011;27369;52.030;4.586;2022-12-15T01:22:46;14.80;;;9.18;;
41683;SDS011;27369;52.030;4.586;2022-12-15T01:25:17;19.00;;;10.60;;
41683;SDS011;27369;52.030;4.586;2022-12-15T01:27:44;20.20;;;11.02;;
41683;SDS011;27369;52.030;4.586;2022-12-15T01:30:10;16.52;;;9.52;;
41683;SDS011;27369;52.030;4.586;2022-12-15T01:32:37;16.17;;;10.05;;
41683;SDS011;27369;52.030;4.586;2022-12-15T01:35:03;13.93;;;9.15;;
41683;SDS011;27369;52.030;4.586;2022-12-15T01:37:30;21.67;;;11.40;;
41683;SDS011;27369;52.030;4.586;2022-12-15T01:39:55;15.63;;;9.55;;
41683;SDS011;27369;52.030;4.586;2022-12-15T01:42:47;16.90;;;9.80;;
41683;SDS011;27369;52.030;4.586;2022-12-15T01:45:35;15.93;;;9.10;;
41683;SDS011;27369;52.030;4.586;2022-12-15T01:48:18;17.30;;;9.63;;
41683;SDS011;27369;52.030;4.586;2022-12-15T01:50:59;16.40;;;10.00;;
41683;SDS011;27369;52.030;4.586;2022-12-15T01:53:59;14.68;;;10.07;;
41683;SDS011;27369;52.030;4.586;2022-12-15T01:56:23;16.25;;;9.75;;
41683;SDS011;27369;52.030;4.586;2022-12-15T01:58:51;18.23;;;10.85;;
41683;SDS011;27369;52.030;4.586;2022-12-15T02:01:18;20.73;;;11.80;;
41683;SDS011;27369;52.030;4.586;2022-12-15T02:03:44;18.85;;;11.88;;
41683;SDS011;27369;52.030;4.586;2022-12-15T02:06:12;24.98;;;12.63;;
41683;SDS011;27369;52.030;4.586;2022-12-15T02:08:37;22.80;;;12.55;;
41683;SDS011;27369;52.030;4.586;2022-12-15T02:11:12;22.35;;;12.50;;
41683;SDS011;27369;52.030;4.586;2022-12-15T02:21:49;25.30;;;14.50;;
41683;SDS011;27369;52.030;4.586;2022-12-15T02:24:52;28.73;;;14.80;;
41683;SDS011;27369;52.030;4.586;2022-12-15T02:33:50;24.17;;;13.23;;
41683;SDS011;27369;52.030;4.586;2022-12-15T02:36:26;21.55;;;12.32;;
41683;SDS011;27369;52.030;4.586;2022-12-15T02:38:56;21.67;;;13.07;;
41683;SDS011;27369;52.030;4.586;2022-12-15T02:41:32;22.42;;;12.70;;
41683;SDS011;27369;52.030;4.586;2022-12-15T02:44:06;23.95;;;13.80;;
41683;SDS011;27369;52.030;4.586;2022-12-15T03:00:00;24.02;;;14.35;;
41683;SDS011;27369;52.030;4.586;2022-12-15T03:02:30;24.75;;;14.13;;
41683;SDS011;27369;52.030;4.586;2022-12-15T03:04:58;24.55;;;13.77;;
41683;SDS011;27369;52.030;4.586;2022-12-15T03:07:25;24.85;;;14.52;;
41683;SDS011;27369;52.030;4.586;2022-12-15T03:09:52;32.33;;;14.98;;
41683;SDS011;27369;52.030;4.586;2022-12-15T03:12:23;26.73;;;15.18;;
41683;SDS011;27369;52.030;4.586;2022-12-15T03:14:49;23.92;;;13.50;;
41683;SDS011;27369;52.030;4.586;2022-12-15T03:17:14;26.15;;;14.70;;
41683;SDS011;27369;52.030;4.586;2022-12-15T03:19:40;23.40;;;13.85;;
41683;SDS011;27369;52.030;4.586;2022-12-15T03:22:05;26.08;;;15.43;;
41683;SDS011;27369;52.030;4.586;2022-12-15T03:24:31;25.75;;;15.93;;
41683;SDS011;27369;52.030;4.586;2022-12-15T03:26:56;25.27;;;14.98;;
41683;SDS011;27369;52.030;4.586;2022-12-15T03:29:21;30.33;;;15.00;;
41683;SDS011;27369;52.030;4.586;2022-12-15T03:31:47;28.48;;;14.73;;
41683;SDS011;27369;52.030;4.586;2022-12-15T03:34:13;26.48;;;14.30;;
41683;SDS011;27369;52.030;4.586;2022-12-15T03:36:38;28.98;;;14.45;;
41683;SDS011;27369;52.030;4.586;2022-12-15T03:39:04;23.92;;;14.30;;
41683;SDS011;27369;52.030;4.586;2022-12-15T03:41:30;24.55;;;13.90;;
41683;SDS011;27369;52.030;4.586;2022-12-15T03:43:56;22.23;;;13.15;;
41683;SDS011;27369;52.030;4.586;2022-12-15T03:46:21;29.48;;;14.40;;
41683;SDS011;27369;52.030;4.586;2022-12-15T03:48:46;24.23;;;13.68;;
41683;SDS011;27369;52.030;4.586;2022-12-15T03:51:12;25.50;;;14.82;;
41683;SDS011;27369;52.030;4.586;2022-12-15T03:53:37;24.13;;;15.60;;
41683;SDS011;27369;52.030;4.586;2022-12-15T03:56:03;21.55;;;14.57;;
41683;SDS011;27369;52.030;4.586;2022-12-15T03:58:28;26.02;;;14.68;;
41683;SDS011;27369;52.030;4.586;2022-12-15T04:00:54;25.60;;;14.70;;
41683;SDS011;27369;52.030;4.586;2022-12-15T04:03:19;27.85;;;16.05;;
41683;SDS011;27369;52.030;4.586;2022-12-15T04:05:45;24.38;;;14.10;;
41683;SDS011;27369;52.030;4.586;2022-12-15T04:08:11;23.00;;;13.77;;
41683;SDS011;27369;52.030;4.586;2022-12-15T04:10:36;24.80;;;14.23;;
41683;SDS011;27369;52.030;4.586;2022-12-15T04:13:06;28.02;;;14.85;;
41683;SDS011;27369;52.030;4.586;2022-12-15T04:15:34;24.42;;;14.30;;
41683;SDS011;27369;52.030;4.586;2022-12-15T04:18:02;29.17;;;15.20;;
41683;SDS011;27369;52.030;4.586;2022-12-15T04:20:31;24.27;;;14.35;;
41683;SDS011;27369;52.030;4.586;2022-12-15T04:22:57;26.83;;;14.10;;
41683;SDS011;27369;52.030;4.586;2022-12-15T04:25:23;26.55;;;14.23;;
41683;SDS011;27369;52.030;4.586;2022-12-15T04:28:08;27.88;;;14.50;;
41683;SDS011;27369;52.030;4.586;2022-12-15T04:30:58;24.75;;;14.38;;
41683;SDS011;27369;52.030;4.586;2022-12-15T04:33:47;21.63;;;13.20;;
41683;SDS011;27369;52.030;4.586;2022-12-15T04:36:33;20.73;;;12.82;;
41683;SDS011;27369;52.030;4.586;2022-12-15T04:39:20;25.00;;;13.60;;
41683;SDS011;27369;52.030;4.586;2022-12-15T04:42:04;28.38;;;14.45;;
41683;SDS011;27369;52.030;4.586;2022-12-15T04:44:49;24.95;;;14.65;;
41683;SDS011;27369;52.030;4.586;2022-12-15T04:47:36;24.65;;;13.68;;
41683;SDS011;27369;52.030;4.586;2022-12-15T04:50:19;23.85;;;13.85;;
41683;SDS011;27369;52.030;4.586;2022-12-15T04:53:11;21.00;;;12.30;;
41683;SDS011;27369;52.030;4.586;2022-12-15T04:55:57;26.33;;;13.95;;
41683;SDS011;27369;52.030;4.586;2022-12-15T04:58:42;25.88;;;13.93;;
41683;SDS011;27369;52.030;4.586;2022-12-15T05:01:26;24.38;;;13.93;;
41683;SDS011;27369;52.030;4.586;2022-12-15T05:04:09;25.77;;;12.68;;
41683;SDS011;27369;52.030;4.586;2022-12-15T05:06:53;27.45;;;14.52;;
41683;SDS011;27369;52.030;4.586;2022-12-15T05:09:37;22.40;;;12.90;;
41683;SDS011;27369;52.030;4.586;2022-12-15T05:12:21;27.95;;;13.52;;
41683;SDS011;27369;52.030;4.586;2022-12-15T05:15:05;20.63;;;11.35;;
41683;SDS011;27369;52.030;4.586;2022-12-15T05:17:50;17.38;;;11.55;;
41683;SDS011;27369;52.030;4.586;2022-12-15T05:20:34;21.63;;;11.23;;
41683;SDS011;27369;52.030;4.586;2022-12-15T05:23:18;23.20;;;12.63;;
41683;SDS011;27369;52.030;4.586;2022-12-15T05:26:02;23.45;;;12.35;;
41683;SDS011;27369;52.030;4.586;2022-12-15T05:28:46;20.40;;;11.05;;
41683;SDS011;27369;52.030;4.586;2022-12-15T05:31:30;20.38;;;12.98;;
41683;SDS011;27369;52.030;4.586;2022-12-15T05:34:12;20.10;;;12.02;;
41683;SDS011;27369;52.030;4.586;2022-12-15T05:36:37;16.63;;;11.50;;
41683;SDS011;27369;52.030;4.586;2022-12-15T05:39:02;21.98;;;11.77;;
41683;SDS011;27369;52.030;4.586;2022-12-15T05:41:28;19.80;;;11.55;;
41683;SDS011;27369;52.030;4.586;2022-12-15T05:43:54;21.55;;;11.90;;
41683;SDS011;27369;52.030;4.586;2022-12-15T05:46:19;23.48;;;12.18;;
41683;SDS011;27369;52.030;4.586;2022-12-15T05:48:45;23.15;;;12.43;;
41683;SDS011;27369;52.030;4.586;2022-12-15T05:51:10;23.75;;;12.48;;
41683;SDS011;27369;52.030;4.586;2022-12-15T05:53:37;18.63;;;11.75;;
41683;SDS011;27369;52.030;4.586;2022-12-15T05:56:04;22.65;;;11.15;;
41683;SDS011;27369;52.030;4.586;2022-12-15T05:58:31;21.67;;;12.82;;
41683;SDS011;27369;52.030;4.586;2022-12-15T06:01:08;21.88;;;12.30;;
41683;SDS011;27369;52.030;4.586;2022-12-15T06:03:40;18.65;;;11.10;;
41683;SDS011;27369;52.030;4.586;2022-12-15T06:08:33;20.67;;;11.27;;
41683;SDS011;27369;52.030;4.586;2022-12-15T06:11:00;17.15;;;11.18;;
41683;SDS011;27369;52.030;4.586;2022-12-15T06:13:27;20.33;;;10.95;;
41683;SDS011;27369;52.030;4.586;2022-12-15T06:15:59;19.65;;;11.10;;
41683;SDS011;27369;52.030;4.586;2022-12-15T06:18:27;21.98;;;12.00;;
41683;SDS011;27369;52.030;4.586;2022-12-15T06:21:03;18.27;;;11.75;;
41683;SDS011;27369;52.030;4.586;2022-12-15T06:23:32;24.42;;;13.13;;
41683;SDS011;27369;52.030;4.586;2022-12-15T06:25:58;20.05;;;11.73;;
41683;SDS011;27369;52.030;4.586;2022-12-15T06:28:24;19.85;;;11.20;;
41683;SDS011;27369;52.030;4.586;2022-12-15T06:30:53;20.20;;;12.02;;
41683;SDS011;27369;52.030;4.586;2022-12-15T06:33:24;21.15;;;12.35;;
41683;SDS011;27369;52.030;4.586;2022-12-15T06:35:50;19.85;;;11.88;;
41683;SDS011;27369;52.030;4.586;2022-12-15T06:38:15;20.02;;;12.13;;
41683;SDS011;27369;52.030;4.586;2022-12-15T06:40:41;20.98;;;12.52;;
41683;SDS011;27369;52.030;4.586;2022-12-15T06:43:06;20.50;;;12.75;;
41683;SDS011;27369;52.030;4.586;2022-12-15T06:45:32;21.42;;;12.70;;
41683;SDS011;27369;52.030;4.586;2022-12-15T06:50:24;24.67;;;11.93;;
41683;SDS011;27369;52.030;4.586;2022-12-15T06:52:49;24.00;;;13.07;;
41683;SDS011;27369;52.030;4.586;2022-12-15T06:55:15;23.17;;;13.00;;
41683;SDS011;27369;52.030;4.586;2022-12-15T06:57:40;22.42;;;13.80;;
41683;SDS011;27369;52.030;4.586;2022-12-15T07:00:06;23.40;;;13.98;;
41683;SDS011;27369;52.030;4.586;2022-12-15T07:02:32;22.35;;;13.88;;
41683;SDS011;27369;52.030;4.586;2022-12-15T07:04:58;25.73;;;14.83;;
41683;SDS011;27369;52.030;4.586;2022-12-15T07:07:24;23.17;;;14.93;;
41683;SDS011;27369;52.030;4.586;2022-12-15T07:09:49;27.80;;;14.35;;
41683;SDS011;27369;52.030;4.586;2022-12-15T07:12:15;26.48;;;14.23;;
41683;SDS011;27369;52.030;4.586;2022-12-15T07:14:40;23.90;;;13.52;;
41683;SDS011;27369;52.030;4.586;2022-12-15T07:17:06;25.80;;;13.13;;
41683;SDS011;27369;52.030;4.586;2022-12-15T07:19:33;27.83;;;13.93;;
41683;SDS011;27369;52.030;4.586;2022-12-15T07:21:58;23.85;;;13.93;;
41683;SDS011;27369;52.030;4.586;2022-12-15T07:24:25;24.75;;;14.05;;
41683;SDS011;27369;52.030;4.586;2022-12-15T07:26:50;24.00;;;14.60;;
41683;SDS011;27369;52.030;4.586;2022-12-15T07:29:16;23.48;;;14.35;;
41683;SDS011;27369;52.030;4.586;2022-12-15T07:31:41;20.77;;;11.98;;
41683;SDS011;27369;52.030;4.586;2022-12-15T07:34:07;23.50;;;13.63;;
41683;SDS011;27369;52.030;4.586;2022-12-15T07:36:32;18.92;;;9.10;;
41683;SDS011;27369;52.030;4.586;2022-12-15T07:38:58;23.58;;;13.50;;
41683;SDS011;27369;52.030;4.586;2022-12-15T07:41:28;21.00;;;12.80;;
41683;SDS011;27369;52.030;4.586;2022-12-15T07:43:54;24.20;;;14.18;;
41683;SDS011;27369;52.030;4.586;2022-12-15T07:46:20;31.90;;;15.07;;
41683;SDS011;27369;52.030;4.586;2022-12-15T07:48:46;23.23;;;13.35;;
41683;SDS011;27369;52.030;4.586;2022-12-15T07:51:12;20.33;;;13.73;;
41683;SDS011;27369;52.030;4.586;2022-12-15T07:53:37;25.20;;;15.10;;
41683;SDS011;27369;52.030;4.586;2022-12-15T07:56:03;25.88;;;14.18;;
41683;SDS011;27369;52.030;4.586;2022-12-15T07:58:29;25.52;;;12.95;;
41683;SDS011;27369;52.030;4.586;2022-12-15T08:01:06;26.05;;;14.27;;
41683;SDS011;27369;52.030;4.586;2022-12-15T08:04:24;23.25;;;13.32;;
41683;SDS011;27369;52.030;4.586;2022-12-15T08:06:49;27.80;;;14.57;;
41683;SDS011;27369;52.030;4.586;2022-12-15T08:09:17;23.13;;;14.75;;
41683;SDS011;27369;52.030;4.586;2022-12-15T08:11:43;19.45;;;11.45;;
41683;SDS011;27369;52.030;4.586;2022-12-15T08:14:08;19.65;;;12.30;;
41683;SDS011;27369;52.030;4.586;2022-12-15T08:16:34;22.45;;;12.98;;
41683;SDS011;27369;52.030;4.586;2022-12-15T08:19:00;19.88;;;12.88;;
41683;SDS011;27369;52.030;4.586;2022-12-15T08:21:28;21.20;;;13.07;;
41683;SDS011;27369;52.030;4.586;2022-12-15T08:26:20;21.30;;;13.07;;
41683;SDS011;27369;52.030;4.586;2022-12-15T08:28:46;16.85;;;9.82;;
41683;SDS011;27369;52.030;4.586;2022-12-15T08:31:15;18.50;;;12.32;;
41683;SDS011;27369;52.030;4.586;2022-12-15T08:33:43;25.75;;;12.50;;
41683;SDS011;27369;52.030;4.586;2022-12-15T08:38:36;19.35;;;12.50;;
41683;SDS011;27369;52.030;4.586;2022-12-15T08:41:10;23.60;;;12.50;;
41683;SDS011;27369;52.030;4.586;2022-12-15T08:43:36;18.48;;;11.90;;
41683;SDS011;27369;52.030;4.586;2022-12-15T08:46:02;23.05;;;13.20;;
41683;SDS011;27369;52.030;4.586;2022-12-15T08:48:28;20.35;;;12.65;;
41683;SDS011;27369;52.030;4.586;2022-12-15T08:50:55;22.70;;;13.93;;
41683;SDS011;27369;52.030;4.586;2022-12-15T08:53:21;20.38;;;12.85;;
41683;SDS011;27369;52.030;4.586;2022-12-15T08:55:46;19.35;;;12.98;;
41683;SDS011;27369;52.030;4.586;2022-12-15T08:58:12;23.85;;;13.85;;
41683;SDS011;27369;52.030;4.586;2022-12-15T09:00:38;21.05;;;13.15;;
41683;SDS011;27369;52.030;4.586;2022-12-15T09:03:03;20.40;;;12.43;;
41683;SDS011;27369;52.030;4.586;2022-12-15T09:05:29;20.25;;;12.25;;
41683;SDS011;27369;52.030;4.586;2022-12-15T09:07:55;17.23;;;12.32;;
41683;SDS011;27369;52.030;4.586;2022-12-15T09:10:21;18.92;;;12.55;;
41683;SDS011;27369;52.030;4.586;2022-12-15T09:12:47;21.70;;;12.73;;
41683;SDS011;27369;52.030;4.586;2022-12-15T09:15:13;19.27;;;12.32;;
41683;SDS011;27369;52.030;4.586;2022-12-15T09:17:38;20.83;;;12.07;;
41683;SDS011;27369;52.030;4.586;2022-12-15T09:20:04;22.02;;;13.25;;
41683;SDS011;27369;52.030;4.586;2022-12-15T09:22:30;23.65;;;13.07;;
41683;SDS011;27369;52.030;4.586;2022-12-15T09:24:56;19.75;;;12.77;;
41683;SDS011;27369;52.030;4.586;2022-12-15T09:27:21;19.10;;;11.65;;
41683;SDS011;27369;52.030;4.586;2022-12-15T09:29:46;20.75;;;11.38;;
41683;SDS011;27369;52.030;4.586;2022-12-15T09:32:12;17.02;;;11.10;;
41683;SDS011;27369;52.030;4.586;2022-12-15T09:34:38;19.42;;;11.10;;
41683;SDS011;27369;52.030;4.586;2022-12-15T09:37:04;16.75;;;10.05;;
41683;SDS011;27369;52.030;4.586;2022-12-15T09:39:30;15.50;;;8.98;;
41683;SDS011;27369;52.030;4.586;2022-12-15T09:44:23;21.20;;;10.05;;
41683;SDS011;27369;52.030;4.586;2022-12-15T09:52:40;15.30;;;9.00;;
41683;SDS011;27369;52.030;4.586;2022-12-15T09:55:25;16.30;;;9.75;;
41683;SDS011;27369;52.030;4.586;2022-12-15T09:57:53;17.15;;;9.27;;
41683;SDS011;27369;52.030;4.586;2022-12-15T10:05:56;15.23;;;10.48;;
41683;SDS011;27369;52.030;4.586;2022-12-15T10:08:27;17.50;;;11.23;;
41683;SDS011;27369;52.030;4.586;2022-12-15T10:10:55;19.15;;;9.63;;
41683;SDS011;27369;52.030;4.586;2022-12-15T10:13:26;16.75;;;10.35;;
41683;SDS011;27369;52.030;4.586;2022-12-15T10:16:03;15.82;;;9.65;;
41683;SDS011;27369;52.030;4.586;2022-12-15T10:18:49;14.75;;;9.77;;
41683;SDS011;27369;52.030;4.586;2022-12-15T10:21:32;15.73;;;10.07;;
41683;SDS011;27369;52.030;4.586;2022-12-15T10:24:15;13.07;;;9.20;;
41683;SDS011;27369;52.030;4.586;2022-12-15T10:26:41;17.77;;;9.57;;
41683;SDS011;27369;52.030;4.586;2022-12-15T10:32:02;16.63;;;8.63;;
41683;SDS011;27369;52.030;4.586;2022-12-15T10:34:35;17.73;;;8.98;;
41683;SDS011;27369;52.030;4.586;2022-12-15T10:37:04;17.63;;;10.38;;
41683;SDS011;27369;52.030;4.586;2022-12-15T10:39:37;17.45;;;10.75;;
41683;SDS011;27369;52.030;4.586;2022-12-15T10:42:21;17.20;;;10.70;;
41683;SDS011;27369;52.030;4.586;2022-12-15T10:44:48;14.77;;;10.25;;
41683;SDS011;27369;52.030;4.586;2022-12-15T10:47:17;19.95;;;11.07;;
41683;SDS011;27369;52.030;4.586;2022-12-15T10:49:45;17.13;;;10.30;;
41683;SDS011;27369;52.030;4.586;2022-12-15T10:52:15;20.98;;;11.27;;
41683;SDS011;27369;52.030;4.586;2022-12-15T10:54:47;16.55;;;11.20;;
41683;SDS011;27369;52.030;4.586;2022-12-15T10:57:22;16.65;;;10.68;;
41683;SDS011;27369;52.030;4.586;2022-12-15T10:59:51;19.63;;;12.43;;
41683;SDS011;27369;52.030;4.586;2022-12-15T11:04:57;20.27;;;11.53;;
41683;SDS011;27369;52.030;4.586;2022-12-15T11:07:27;17.98;;;11.30;;
41683;SDS011;27369;52.030;4.586;2022-12-15T11:10:12;16.75;;;10.27;;
41683;SDS011;27369;52.030;4.586;2022-12-15T11:12:53;16.27;;;9.50;;
41683;SDS011;27369;52.030;4.586;2022-12-15T11:15:38;16.58;;;10.07;;
41683;SDS011;27369;52.030;4.586;2022-12-15T11:18:07;14.77;;;9.48;;
41683;SDS011;27369;52.030;4.586;2022-12-15T11:20:41;12.45;;;8.65;;
41683;SDS011;27369;52.030;4.586;2022-12-15T11:23:24;17.42;;;9.10;;
41683;SDS011;27369;52.030;4.586;2022-12-15T11:28:47;13.63;;;9.18;;
41683;SDS011;27369;52.030;4.586;2022-12-15T11:31:23;14.32;;;9.32;;
41683;SDS011;27369;52.030;4.586;2022-12-15T11:33:55;15.57;;;9.13;;
41683;SDS011;27369;52.030;4.586;2022-12-15T11:38:54;14.55;;;8.55;;
41683;SDS011;27369;52.030;4.586;2022-12-15T11:41:36;13.07;;;8.80;;
41683;SDS011;27369;52.030;4.586;2022-12-15T11:49:28;15.98;;;9.07;;
41683;SDS011;27369;52.030;4.586;2022-12-15T11:52:14;12.23;;;7.63;;
41683;SDS011;27369;52.030;4.586;2022-12-15T11:54:53;12.45;;;7.75;;
41683;SDS011;27369;52.030;4.586;2022-12-15T12:00:03;13.57;;;8.80;;
41683;SDS011;27369;52.030;4.586;2022-12-15T12:02:48;14.43;;;8.55;;
41683;SDS011;27369;52.030;4.586;2022-12-15T12:11:07;14.30;;;8.95;;
41683;SDS011;27369;52.030;4.586;2022-12-15T12:19:03;14.43;;;10.00;;
41683;SDS011;27369;52.030;4.586;2022-12-15T12:21:42;16.10;;;9.70;;
41683;SDS011;27369;52.030;4.586;2022-12-15T12:26:45;14.30;;;9.23;;
41683;SDS011;27369;52.030;4.586;2022-12-15T12:29:19;15.40;;;9.55;;
41683;SDS011;27369;52.030;4.586;2022-12-15T12:34:21;16.35;;;9.68;;
41683;SDS011;27369;52.030;4.586;2022-12-15T12:36:51;14.02;;;9.25;;
41683;SDS011;27369;52.030;4.586;2022-12-15T12:39:20;16.55;;;8.40;;
41683;SDS011;27369;52.030;4.586;2022-12-15T12:44:40;16.70;;;8.38;;
41683;SDS011;27369;52.030;4.586;2022-12-15T12:49:38;13.80;;;7.47;;
41683;SDS011;27369;52.030;4.586;2022-12-15T12:52:23;13.60;;;7.72;;
41683;SDS011;27369;52.030;4.586;2022-12-15T12:54:55;14.05;;;7.57;;
41683;SDS011;27369;52.030;4.586;2022-12-15T13:05:42;10.30;;;5.97;;
41683;SDS011;27369;52.030;4.586;2022-12-15T13:10:35;11.02;;;5.57;;
41683;SDS011;27369;52.030;4.586;2022-12-15T13:15:43;10.55;;;5.47;;
41683;SDS011;27369;52.030;4.586;2022-12-15T13:18:14;7.93;;;5.25;;
41683;SDS011;27369;52.030;4.586;2022-12-15T13:20:42;7.18;;;3.97;;
41683;SDS011;27369;52.030;4.586;2022-12-15T13:39:04;3.90;;;1.50;;
41683;SDS011;27369;52.030;4.586;2022-12-15T13:46:45;3.87;;;1.27;;
41683;SDS011;27369;52.030;4.586;2022-12-15T13:49:13;6.22;;;1.30;;
41683;SDS011;27369;52.030;4.586;2022-12-15T13:51:57;2.85;;;0.88;;
41683;SDS011;27369;52.030;4.586;2022-12-15T13:54:33;6.95;;;1.40;;
41683;SDS011;27369;52.030;4.586;2022-12-15T13:57:14;6.15;;;1.17;;
41683;SDS011;27369;52.030;4.586;2022-12-15T14:07:57;7.40;;;1.23;;
41683;SDS011;27369;52.030;4.586;2022-12-15T14:10:41;5.07;;;1.13;;
41683;SDS011;27369;52.030;4.586;2022-12-15T14:13:12;3.85;;;1.00;;
41683;SDS011;27369;52.030;4.586;2022-12-15T14:15:44;4.93;;;0.93;;
41683;SDS011;27369;52.030;4.586;2022-12-15T14:18:32;3.55;;;0.80;;
41683;SDS011;27369;52.030;4.586;2022-12-15T14:21:00;5.88;;;1.23;;
41683;SDS011;27369;52.030;4.586;2022-12-15T14:23:37;5.05;;;1.00;;
41683;SDS011;27369;52.030;4.586;2022-12-15T14:26:08;2.85;;;0.68;;
41683;SDS011;27369;52.030;4.586;2022-12-15T14:28:38;2.65;;;0.60;;
41683;SDS011;27369;52.030;4.586;2022-12-15T14:31:09;4.53;;;0.75;;
41683;SDS011;27369;52.030;4.586;2022-12-15T14:33:40;5.25;;;1.00;;
41683;SDS011;27369;52.030;4.586;2022-12-15T14:36:09;5.55;;;0.82;;
41683;SDS011;27369;52.030;4.586;2022-12-15T14:41:02;5.60;;;0.87;;
41683;SDS011;27369;52.030;4.586;2022-12-15T14:43:30;7.38;;;1.80;;
41683;SDS011;27369;52.030;4.586;2022-12-15T14:46:08;5.85;;;0.98;;
41683;SDS011;27369;52.030;4.586;2022-12-15T14:48:41;5.28;;;1.48;;
41683;SDS011;27369;52.030;4.586;2022-12-15T14:51:14;5.35;;;1.27;;
41683;SDS011;27369;52.030;4.586;2022-12-15T14:53:41;7.13;;;1.35;;
41683;SDS011;27369;52.030;4.586;2022-12-15T14:58:42;5.43;;;1.35;;
41683;SDS011;27369;52.030;4.586;2022-12-15T15:01:25;4.65;;;1.02;;
41683;SDS011;27369;52.030;4.586;2022-12-15T15:04:19;3.80;;;1.02;;
41683;SDS011;27369;52.030;4.586;2022-12-15T15:06:45;3.22;;;0.90;;
41683;SDS011;27369;52.030;4.586;2022-12-15T15:11:39;6.25;;;1.00;;
41683;SDS011;27369;52.030;4.586;2022-12-15T15:14:11;4.68;;;1.15;;
41683;SDS011;27369;52.030;4.586;2022-12-15T15:16:41;8.23;;;1.02;;
41683;SDS011;27369;52.030;4.586;2022-12-15T15:19:10;6.68;;;1.30;;
41683;SDS011;27369;52.030;4.586;2022-12-15T15:21:44;4.20;;;0.95;;
41683;SDS011;27369;52.030;4.586;2022-12-15T15:26:36;3.60;;;1.00;;
41683;SDS011;27369;52.030;4.586;2022-12-15T15:29:02;5.60;;;1.10;;
41683;SDS011;27369;52.030;4.586;2022-12-15T15:31:29;2.35;;;0.95;;
41683;SDS011;27369;52.030;4.586;2022-12-15T15:33:59;3.28;;;1.00;;
41683;SDS011;27369;52.030;4.586;2022-12-15T15:36:28;3.72;;;0.95;;
41683;SDS011;27369;52.030;4.586;2022-12-15T15:38:56;7.70;;;1.15;;
41683;SDS011;27369;52.030;4.586;2022-12-15T15:41:29;6.68;;;1.40;;
41683;SDS011;27369;52.030;4.586;2022-12-15T15:43:57;7.28;;;1.40;;
41683;SDS011;27369;52.030;4.586;2022-12-15T15:46:24;8.30;;;1.30;;
41683;SDS011;27369;52.030;4.586;2022-12-15T15:48:54;7.05;;;1.88;;
41683;SDS011;27369;52.030;4.586;2022-12-15T15:51:22;3.83;;;1.30;;
41683;SDS011;27369;52.030;4.586;2022-12-15T15:53:49;4.95;;;1.17;;
41683;SDS011;27369;52.030;4.586;2022-12-15T15:56:16;6.05;;;1.35;;
41683;SDS011;27369;52.030;4.586;2022-12-15T15:58:42;3.17;;;1.40;;
41683;SDS011;27369;52.030;4.586;2022-12-15T16:01:08;6.32;;;1.45;;
41683;SDS011;27369;52.030;4.586;2022-12-15T16:03:34;4.78;;;1.02;;
41683;SDS011;27369;52.030;4.586;2022-12-15T16:06:00;6.82;;;1.27;;
41683;SDS011;27369;52.030;4.586;2022-12-15T16:08:28;5.32;;;1.52;;
41683;SDS011;27369;52.030;4.586;2022-12-15T16:10:57;4.57;;;1.80;;
41683;SDS011;27369;52.030;4.586;2022-12-15T16:13:22;5.88;;;2.10;;
41683;SDS011;27369;52.030;4.586;2022-12-15T16:15:48;5.63;;;2.38;;
41683;SDS011;27369;52.030;4.586;2022-12-15T16:18:13;4.38;;;2.13;;
41683;SDS011;27369;52.030;4.586;2022-12-15T16:20:40;8.35;;;2.55;;
41683;SDS011;27369;52.030;4.586;2022-12-15T16:23:11;6.10;;;3.63;;
41683;SDS011;27369;52.030;4.586;2022-12-15T16:25:43;8.95;;;5.75;;
41683;SDS011;27369;52.030;4.586;2022-12-15T16:28:15;12.98;;;7.32;;
41683;SDS011;27369;52.030;4.586;2022-12-15T16:30:44;18.02;;;8.43;;
41683;SDS011;27369;52.030;4.586;2022-12-15T16:33:10;16.05;;;10.10;;
41683;SDS011;27369;52.030;4.586;2022-12-15T16:35:36;18.67;;;10.73;;
41683;SDS011;27369;52.030;4.586;2022-12-15T16:38:04;18.95;;;10.48;;
41683;SDS011;27369;52.030;4.586;2022-12-15T16:40:35;21.58;;;13.35;;
41683;SDS011;27369;52.030;4.586;2022-12-15T16:43:01;23.20;;;14.27;;
41683;SDS011;27369;52.030;4.586;2022-12-15T16:45:28;21.85;;;14.77;;
41683;SDS011;27369;52.030;4.586;2022-12-15T16:47:55;26.13;;;15.88;;
41683;SDS011;27369;52.030;4.586;2022-12-15T16:50:32;24.70;;;15.43;;
41683;SDS011;27369;52.030;4.586;2022-12-15T16:53:01;24.45;;;16.33;;
41683;SDS011;27369;52.030;4.586;2022-12-15T16:55:29;23.77;;;15.27;;
41683;SDS011;27369;52.030;4.586;2022-12-15T16:57:59;25.27;;;16.08;;
41683;SDS011;27369;52.030;4.586;2022-12-15T17:00:27;23.63;;;15.65;;
41683;SDS011;27369;52.030;4.586;2022-12-15T17:02:58;25.67;;;15.98;;
41683;SDS011;27369;52.030;4.586;2022-12-15T17:05:34;31.98;;;16.80;;
41683;SDS011;27369;52.030;4.586;2022-12-15T17:08:01;27.15;;;17.30;;
41683;SDS011;27369;52.030;4.586;2022-12-15T17:10:29;28.50;;;18.05;;
41683;SDS011;27369;52.030;4.586;2022-12-15T17:13:01;31.60;;;18.70;;
41683;SDS011;27369;52.030;4.586;2022-12-15T17:15:29;30.80;;;17.95;;
41683;SDS011;27369;52.030;4.586;2022-12-15T17:17:55;32.92;;;18.90;;
41683;SDS011;27369;52.030;4.586;2022-12-15T17:20:22;27.77;;;18.25;;